sensor_id;sensor_type;location;lat;lon;timestamp;pressure;altitude;pressure_sealevel;temperature;humidity
20023;BME280;10172;42.054;24.546;2023-02-13T00:01:30;99992.97;;;4.01;90.79
20023;BME280;10172;42.054;24.546;2023-02-13T00:03:56;99986.88;;;3.30;95.92
20023;BME280;10172;42.054;24.546;2023-02-13T00:06:22;99997.25;;;3.45;96.16
20023;BME280;10172;42.054;24.546;2023-02-13T00:08:47;99998.63;;;3.74;93.04
20023;BME280;10172;42.054;24.546;2023-02-13T00:11:13;99993.94;;;3.28;95.53
20023;BME280;10172;42.054;24.546;2023-02-13T00:13:40;100004.03;;;3.65;93.17
20023;BME280;10172;42.054;24.546;2023-02-13T00:16:06;99990.72;;;3.74;89.82
20023;BME280;10172;42.054;24.546;2023-02-13T00:18:36;99998.91;;;3.52;92.27
20023;BME280;10172;42.054;24.546;2023-02-13T00:21:08;100003.16;;;3.62;92.04
20023;BME280;10172;42.054;24.546;2023-02-13T00:23:35;100006.28;;;3.92;90.75
20023;BME280;10172;42.054;24.546;2023-02-13T00:26:06;100009.97;;;3.79;90.77
20023;BME280;10172;42.054;24.546;2023-02-13T00:28:31;99996.56;;;3.95;89.52
20023;BME280;10172;42.054;24.546;2023-02-13T00:31:14;99998.53;;;4.39;85.74
20023;BME280;10172;42.054;24.546;2023-02-13T00:33:41;99994.91;;;4.97;82.77
20023;BME280;10172;42.054;24.546;2023-02-13T00:36:09;100002.00;;;3.82;88.28
20023;BME280;10172;42.054;24.546;2023-02-13T00:38:36;100014.25;;;3.86;89.65
20023;BME280;10172;42.054;24.546;2023-02-13T00:41:02;100005.94;;;4.14;87.85
20023;BME280;10172;42.054;24.546;2023-02-13T00:43:28;99995.00;;;3.84;86.91
20023;BME280;10172;42.054;24.546;2023-02-13T00:45:53;100005.78;;;4.78;83.43
20023;BME280;10172;42.054;24.546;2023-02-13T00:48:19;100005.16;;;5.58;80.05
20023;BME280;10172;42.054;24.546;2023-02-13T00:50:45;100007.63;;;6.07;77.47
20023;BME280;10172;42.054;24.546;2023-02-13T00:53:11;100012.47;;;5.43;76.20
20023;BME280;10172;42.054;24.546;2023-02-13T00:55:36;100003.19;;;5.67;76.80
20023;BME280;10172;42.054;24.546;2023-02-13T00:58:02;100008.50;;;5.66;76.36
20023;BME280;10172;42.054;24.546;2023-02-13T01:00:27;100016.47;;;4.14;85.13
20023;BME280;10172;42.054;24.546;2023-02-13T01:02:54;100020.69;;;3.63;88.72
20023;BME280;10172;42.054;24.546;2023-02-13T01:05:19;100014.41;;;3.74;88.75
20023;BME280;10172;42.054;24.546;2023-02-13T01:07:45;100011.00;;;3.66;89.69
20023;BME280;10172;42.054;24.546;2023-02-13T01:10:10;100016.34;;;4.22;87.95
20023;BME280;10172;42.054;24.546;2023-02-13T01:12:36;100018.63;;;3.87;90.58
20023;BME280;10172;42.054;24.546;2023-02-13T01:15:02;100020.41;;;3.85;91.64
20023;BME280;10172;42.054;24.546;2023-02-13T01:17:28;100021.66;;;3.56;94.63
20023;BME280;10172;42.054;24.546;2023-02-13T01:19:53;100007.50;;;2.90;98.87
20023;BME280;10172;42.054;24.546;2023-02-13T01:22:19;100000.50;;;2.88;100.00
20023;BME280;10172;42.054;24.546;2023-02-13T01:24:44;100009.28;;;2.84;100.00
20023;BME280;10172;42.054;24.546;2023-02-13T01:27:10;99996.00;;;2.99;100.00
20023;BME280;10172;42.054;24.546;2023-02-13T01:29:35;100001.34;;;2.90;100.00
20023;BME280;10172;42.054;24.546;2023-02-13T01:32:01;100001.22;;;3.05;98.43
20023;BME280;10172;42.054;24.546;2023-02-13T01:34:30;100011.66;;;3.83;95.96
20023;BME280;10172;42.054;24.546;2023-02-13T01:36:55;100015.38;;;3.68;91.71
20023;BME280;10172;42.054;24.546;2023-02-13T01:39:21;100019.09;;;3.49;93.01
20023;BME280;10172;42.054;24.546;2023-02-13T01:41:46;100015.63;;;3.48;92.52
20023;BME280;10172;42.054;24.546;2023-02-13T01:44:47;100024.81;;;3.86;91.17
20023;BME280;10172;42.054;24.546;2023-02-13T01:47:16;100024.38;;;4.71;85.54
20023;BME280;10172;42.054;24.546;2023-02-13T01:49:44;100023.94;;;5.42;81.52
20023;BME280;10172;42.054;24.546;2023-02-13T01:52:11;100024.06;;;5.79;78.19
20023;BME280;10172;42.054;24.546;2023-02-13T01:54:39;100027.38;;;5.90;76.44
20023;BME280;10172;42.054;24.546;2023-02-13T01:57:26;100028.72;;;5.22;78.64
20023;BME280;10172;42.054;24.546;2023-02-13T01:59:56;100039.81;;;4.40;82.85
20023;BME280;10172;42.054;24.546;2023-02-13T02:02:23;100027.34;;;5.02;80.43
20023;BME280;10172;42.054;24.546;2023-02-13T02:04:49;100028.09;;;4.58;79.44
20023;BME280;10172;42.054;24.546;2023-02-13T02:07:26;100037.16;;;3.03;94.49
20023;BME280;10172;42.054;24.546;2023-02-13T02:09:57;100038.88;;;3.82;89.95
20023;BME280;10172;42.054;24.546;2023-02-13T02:12:33;100034.78;;;2.77;95.64
20023;BME280;10172;42.054;24.546;2023-02-13T02:15:02;100035.56;;;3.68;94.76
20023;BME280;10172;42.054;24.546;2023-02-13T02:17:29;100042.63;;;3.62;91.92
20023;BME280;10172;42.054;24.546;2023-02-13T02:39:04;100066.38;;;3.59;86.13
20023;BME280;10172;42.054;24.546;2023-02-13T02:42:00;100068.00;;;2.86;91.90
20023;BME280;10172;42.054;24.546;2023-02-13T02:44:41;100072.56;;;2.64;93.69
20023;BME280;10172;42.054;24.546;2023-02-13T02:47:25;100074.22;;;3.62;90.13
20023;BME280;10172;42.054;24.546;2023-02-13T02:53:05;100084.53;;;2.98;87.75
20023;BME280;10172;42.054;24.546;2023-02-13T03:01:05;100078.31;;;3.06;88.79
20023;BME280;10172;42.054;24.546;2023-02-13T03:03:51;100079.63;;;2.56;91.97
20023;BME280;10172;42.054;24.546;2023-02-13T03:06:55;100087.69;;;2.27;98.93
20023;BME280;10172;42.054;24.546;2023-02-13T03:09:29;100081.63;;;2.18;100.00
20023;BME280;10172;42.054;24.546;2023-02-13T03:12:18;100089.69;;;1.80;100.00
20023;BME280;10172;42.054;24.546;2023-02-13T03:15:03;100091.63;;;1.30;100.00
20023;BME280;10172;42.054;24.546;2023-02-13T03:17:29;100088.13;;;1.15;100.00
20023;BME280;10172;42.054;24.546;2023-02-13T03:23:12;100085.34;;;1.74;100.00
20023;BME280;10172;42.054;24.546;2023-02-13T03:28:36;100096.91;;;0.99;100.00
20023;BME280;10172;42.054;24.546;2023-02-13T03:31:46;100085.50;;;1.29;100.00
20023;BME280;10172;42.054;24.546;2023-02-13T03:34:23;100089.03;;;0.62;100.00
20023;BME280;10172;42.054;24.546;2023-02-13T03:37:13;100072.41;;;1.15;100.00
20023;BME280;10172;42.054;24.546;2023-02-13T03:42:47;100086.38;;;1.17;100.00
20023;BME280;10172;42.054;24.546;2023-02-13T03:45:29;100089.00;;;1.30;100.00
20023;BME280;10172;42.054;24.546;2023-02-13T03:48:15;100090.75;;;1.09;100.00
20023;BME280;10172;42.054;24.546;2023-02-13T03:51:02;100096.03;;;0.97;100.00
20023;BME280;10172;42.054;24.546;2023-02-13T03:53:30;100093.28;;;1.53;100.00
20023;BME280;10172;42.054;24.546;2023-02-13T03:55:58;100095.16;;;0.80;100.00
20023;BME280;10172;42.054;24.546;2023-02-13T03:58:51;100105.59;;;1.35;100.00
20023;BME280;10172;42.054;24.546;2023-02-13T04:01:37;100095.94;;;1.41;100.00
20023;BME280;10172;42.054;24.546;2023-02-13T04:09:25;100107.34;;;0.42;100.00
20023;BME280;10172;42.054;24.546;2023-02-13T04:14:35;100114.38;;;0.85;100.00
20023;BME280;10172;42.054;24.546;2023-02-13T04:17:09;100098.63;;;0.55;100.00
20023;BME280;10172;42.054;24.546;2023-02-13T04:19:38;100090.78;;;0.70;100.00
20023;BME280;10172;42.054;24.546;2023-02-13T04:22:03;100086.38;;;0.33;100.00
20023;BME280;10172;42.054;24.546;2023-02-13T04:24:29;100095.13;;;0.44;100.00
20023;BME280;10172;42.054;24.546;2023-02-13T04:26:55;100089.91;;;0.50;100.00
20023;BME280;10172;42.054;24.546;2023-02-13T04:29:22;100098.66;;;0.72;100.00
20023;BME280;10172;42.054;24.546;2023-02-13T04:31:49;100100.38;;;0.56;100.00
20023;BME280;10172;42.054;24.546;2023-02-13T04:34:14;100094.25;;;0.36;100.00
20023;BME280;10172;42.054;24.546;2023-02-13T04:36:40;100094.22;;;0.25;100.00
20023;BME280;10172;42.054;24.546;2023-02-13T04:39:05;100095.97;;;0.38;100.00
20023;BME280;10172;42.054;24.546;2023-02-13T04:41:31;100092.50;;;0.41;100.00
20023;BME280;10172;42.054;24.546;2023-02-13T04:43:56;100098.63;;;0.37;100.00
20023;BME280;10172;42.054;24.546;2023-02-13T04:46:22;100089.00;;;0.36;100.00
20023;BME280;10172;42.054;24.546;2023-02-13T04:48:47;100089.91;;;0.74;100.00
20023;BME280;10172;42.054;24.546;2023-02-13T04:51:13;100093.38;;;0.73;100.00
20023;BME280;10172;42.054;24.546;2023-02-13T04:53:38;100095.13;;;0.44;100.00
20023;BME280;10172;42.054;24.546;2023-02-13T04:56:04;100090.72;;;0.19;100.00
20023;BME280;10172;42.054;24.546;2023-02-13T04:58:29;100092.41;;;0.06;100.00
20023;BME280;10172;42.054;24.546;2023-02-13T05:00:55;100100.28;;;0.02;100.00
20023;BME280;10172;42.054;24.546;2023-02-13T05:03:20;100101.19;;;0.20;100.00
20023;BME280;10172;42.054;24.546;2023-02-13T05:05:47;100101.19;;;0.25;100.00
20023;BME280;10172;42.054;24.546;2023-02-13T05:08:13;100097.59;;;-0.12;100.00
20023;BME280;10172;42.054;24.546;2023-02-13T05:10:38;100101.94;;;-0.16;100.00
20023;BME280;10172;42.054;24.546;2023-02-13T05:13:03;100112.50;;;0.04;100.00
20023;BME280;10172;42.054;24.546;2023-02-13T05:15:29;100103.69;;;-0.18;100.00
20023;BME280;10172;42.054;24.546;2023-02-13T05:17:54;100102.81;;;-0.18;100.00
20023;BME280;10172;42.054;24.546;2023-02-13T05:20:20;100101.94;;;-0.22;100.00
20023;BME280;10172;42.054;24.546;2023-02-13T05:22:47;100117.72;;;-0.01;100.00
20023;BME280;10172;42.054;24.546;2023-02-13T05:25:32;100122.91;;;-0.07;100.00
20023;BME280;10172;42.054;24.546;2023-02-13T05:27:57;100111.56;;;-0.12;100.00
20023;BME280;10172;42.054;24.546;2023-02-13T05:30:23;100118.66;;;0.21;100.00
20023;BME280;10172;42.054;24.546;2023-02-13T05:32:48;100129.09;;;0.17;100.00
20023;BME280;10172;42.054;24.546;2023-02-13T05:35:17;100122.97;;;0.09;100.00
20023;BME280;10172;42.054;24.546;2023-02-13T05:37:42;100125.59;;;0.10;100.00
20023;BME280;10172;42.054;24.546;2023-02-13T05:40:08;100134.38;;;0.36;100.00
20023;BME280;10172;42.054;24.546;2023-02-13T05:42:34;100136.19;;;0.72;100.00
20023;BME280;10172;42.054;24.546;2023-02-13T05:45:00;100143.16;;;0.46;100.00
20023;BME280;10172;42.054;24.546;2023-02-13T05:47:25;100154.53;;;0.62;100.00
20023;BME280;10172;42.054;24.546;2023-02-13T05:49:51;100136.00;;;-0.02;100.00
20023;BME280;10172;42.054;24.546;2023-02-13T05:52:16;100151.75;;;0.07;100.00
20023;BME280;10172;42.054;24.546;2023-02-13T05:54:41;100146.44;;;-0.08;100.00
20023;BME280;10172;42.054;24.546;2023-02-13T05:57:07;100149.16;;;0.12;100.00
20023;BME280;10172;42.054;24.546;2023-02-13T05:59:32;100153.66;;;0.56;100.00
20023;BME280;10172;42.054;24.546;2023-02-13T06:01:58;100150.09;;;0.29;100.00
20023;BME280;10172;42.054;24.546;2023-02-13T06:04:23;100156.25;;;0.69;100.00
20023;BME280;10172;42.054;24.546;2023-02-13T06:06:49;100170.28;;;1.20;100.00
20023;BME280;10172;42.054;24.546;2023-02-13T06:09:14;100164.16;;;0.91;100.00
20023;BME280;10172;42.054;24.546;2023-02-13T06:11:40;100172.00;;;0.85;100.00
20023;BME280;10172;42.054;24.546;2023-02-13T06:14:05;100166.72;;;0.55;100.00
20023;BME280;10172;42.054;24.546;2023-02-13T06:16:30;100170.22;;;0.51;100.00
20023;BME280;10172;42.054;24.546;2023-02-13T06:18:56;100170.25;;;0.72;100.00
20023;BME280;10172;42.054;24.546;2023-02-13T06:21:22;100166.72;;;0.52;100.00
20023;BME280;10172;42.054;24.546;2023-02-13T06:23:47;100174.63;;;0.75;100.00
20023;BME280;10172;42.054;24.546;2023-02-13T06:26:13;100156.25;;;0.46;100.00
20023;BME280;10172;42.054;24.546;2023-02-13T06:28:38;100160.63;;;0.67;100.00
20023;BME280;10172;42.054;24.546;2023-02-13T06:31:04;100157.16;;;0.90;100.00
20023;BME280;10172;42.054;24.546;2023-02-13T06:33:29;100156.22;;;0.49;100.00
20023;BME280;10172;42.054;24.546;2023-02-13T06:35:55;100159.75;;;0.55;100.00
20023;BME280;10172;42.054;24.546;2023-02-13T06:38:20;100154.53;;;0.68;100.00
20023;BME280;10172;42.054;24.546;2023-02-13T06:40:47;100153.66;;;1.00;100.00
20023;BME280;10172;42.054;24.546;2023-02-13T06:43:13;100155.41;;;0.80;100.00
20023;BME280;10172;42.054;24.546;2023-02-13T06:45:39;100166.75;;;1.00;100.00
20023;BME280;10172;42.054;24.546;2023-02-13T06:48:05;100170.28;;;1.02;100.00
20023;BME280;10172;42.054;24.546;2023-02-13T06:50:31;100158.75;;;1.91;100.00
20023;BME280;10172;42.054;24.546;2023-02-13T06:52:57;100165.34;;;2.71;100.00
20023;BME280;10172;42.054;24.546;2023-02-13T06:55:22;100164.03;;;3.29;96.36
20023;BME280;10172;42.054;24.546;2023-02-13T06:57:48;100165.63;;;3.45;92.84
20023;BME280;10172;42.054;24.546;2023-02-13T07:00:15;100165.34;;;3.76;89.63
20023;BME280;10172;42.054;24.546;2023-02-13T07:02:42;100153.69;;;3.96;87.35
20023;BME280;10172;42.054;24.546;2023-02-13T07:05:09;100157.19;;;3.95;86.59
20023;BME280;10172;42.054;24.546;2023-02-13T07:07:36;100167.03;;;3.80;87.57
20023;BME280;10172;42.054;24.546;2023-02-13T07:10:04;100162.91;;;4.32;85.64
20023;BME280;10172;42.054;24.546;2023-02-13T07:12:34;100166.59;;;4.80;83.81
20023;BME280;10172;42.054;24.546;2023-02-13T07:15:01;100166.47;;;4.89;80.81
20023;BME280;10172;42.054;24.546;2023-02-13T07:17:26;100163.22;;;5.27;79.76
20023;BME280;10172;42.054;24.546;2023-02-13T07:19:52;100162.75;;;5.54;78.53
20023;BME280;10172;42.054;24.546;2023-02-13T07:22:18;100163.34;;;5.70;76.37
20023;BME280;10172;42.054;24.546;2023-02-13T07:24:43;100154.41;;;5.77;75.61
20023;BME280;10172;42.054;24.546;2023-02-13T07:27:08;100156.88;;;5.87;75.42
20023;BME280;10172;42.054;24.546;2023-02-13T07:29:34;100160.78;;;6.11;74.71
20023;BME280;10172;42.054;24.546;2023-02-13T07:31:59;100154.56;;;6.55;72.90
20023;BME280;10172;42.054;24.546;2023-02-13T07:34:25;100159.56;;;6.69;70.92
20023;BME280;10172;42.054;24.546;2023-02-13T07:36:50;100167.59;;;6.64;70.72
20023;BME280;10172;42.054;24.546;2023-02-13T07:39:16;100161.53;;;6.18;72.93
20023;BME280;10172;42.054;24.546;2023-02-13T07:41:41;100159.81;;;3.97;82.24
20023;BME280;10172;42.054;24.546;2023-02-13T07:44:07;100158.31;;;3.75;85.86
20023;BME280;10172;42.054;24.546;2023-02-13T07:46:33;100158.47;;;4.33;83.49
20023;BME280;10172;42.054;24.546;2023-02-13T07:48:58;100148.13;;;3.43;87.69
20023;BME280;10172;42.054;24.546;2023-02-13T07:51:23;100147.03;;;3.63;88.79
20023;BME280;10172;42.054;24.546;2023-02-13T07:53:53;100151.72;;;4.12;84.78
20023;BME280;10172;42.054;24.546;2023-02-13T07:56:18;100151.03;;;4.63;80.98
20023;BME280;10172;42.054;24.546;2023-02-13T07:58:44;100155.16;;;4.17;82.48
20023;BME280;10172;42.054;24.546;2023-02-13T08:01:12;100161.22;;;4.25;85.00
20023;BME280;10172;42.054;24.546;2023-02-13T08:03:38;100158.56;;;5.41;78.84
20023;BME280;10172;42.054;24.546;2023-02-13T08:06:04;100161.78;;;5.08;78.21
20023;BME280;10172;42.054;24.546;2023-02-13T08:08:30;100159.59;;;5.34;76.96
20023;BME280;10172;42.054;24.546;2023-02-13T08:10:56;100162.34;;;4.07;84.11
20023;BME280;10172;42.054;24.546;2023-02-13T08:13:41;100161.53;;;4.66;82.52
20023;BME280;10172;42.054;24.546;2023-02-13T08:16:07;100144.56;;;5.86;78.09
20023;BME280;10172;42.054;24.546;2023-02-13T08:18:33;100148.44;;;6.13;73.66
20023;BME280;10172;42.054;24.546;2023-02-13T08:21:01;100146.38;;;5.81;76.67
20023;BME280;10172;42.054;24.546;2023-02-13T08:23:26;100153.03;;;5.56;76.78
20023;BME280;10172;42.054;24.546;2023-02-13T08:25:51;100151.50;;;4.91;77.46
20023;BME280;10172;42.054;24.546;2023-02-13T08:28:17;100151.03;;;5.20;79.09
20023;BME280;10172;42.054;24.546;2023-02-13T08:30:42;100152.97;;;6.07;75.88
20023;BME280;10172;42.054;24.546;2023-02-13T08:33:08;100143.19;;;5.64;75.91
20023;BME280;10172;42.054;24.546;2023-02-13T08:35:34;100146.47;;;5.78;76.25
20023;BME280;10172;42.054;24.546;2023-02-13T08:38:03;100148.47;;;4.57;82.48
20023;BME280;10172;42.054;24.546;2023-02-13T08:40:29;100143.50;;;5.95;77.31
20023;BME280;10172;42.054;24.546;2023-02-13T08:43:02;100134.53;;;6.45;72.83
20023;BME280;10172;42.054;24.546;2023-02-13T08:45:28;100134.88;;;6.30;73.87
20023;BME280;10172;42.054;24.546;2023-02-13T08:47:57;100132.84;;;6.81;71.04
20023;BME280;10172;42.054;24.546;2023-02-13T08:50:23;100142.47;;;6.83;70.87
20023;BME280;10172;42.054;24.546;2023-02-13T08:52:48;100131.44;;;7.01;70.12
20023;BME280;10172;42.054;24.546;2023-02-13T08:55:14;100130.47;;;7.73;66.19
20023;BME280;10172;42.054;24.546;2023-02-13T08:57:39;100130.56;;;7.01;68.11
20023;BME280;10172;42.054;24.546;2023-02-13T09:00:05;100127.97;;;6.23;74.36
20023;BME280;10172;42.054;24.546;2023-02-13T09:02:31;100126.66;;;7.51;68.82
20023;BME280;10172;42.054;24.546;2023-02-13T09:04:56;100127.03;;;8.00;66.83
20023;BME280;10172;42.054;24.546;2023-02-13T09:07:22;100133.16;;;8.34;65.20
20023;BME280;10172;42.054;24.546;2023-02-13T09:09:47;100132.69;;;8.50;63.39
20023;BME280;10172;42.054;24.546;2023-02-13T09:12:13;100131.84;;;8.77;63.33
20023;BME280;10172;42.054;24.546;2023-02-13T09:14:38;100124.41;;;8.88;61.21
20023;BME280;10172;42.054;24.546;2023-02-13T09:17:04;100112.47;;;8.73;62.10
20023;BME280;10172;42.054;24.546;2023-02-13T09:19:29;100115.03;;;9.04;60.16
20023;BME280;10172;42.054;24.546;2023-02-13T09:21:55;100118.97;;;9.19;60.48
20023;BME280;10172;42.054;24.546;2023-02-13T09:24:20;100118.00;;;8.67;60.01
20023;BME280;10172;42.054;24.546;2023-02-13T09:26:45;100104.50;;;9.01;60.42
20023;BME280;10172;42.054;24.546;2023-02-13T09:29:11;100111.63;;;8.73;61.45
20023;BME280;10172;42.054;24.546;2023-02-13T09:31:36;100107.19;;;7.84;63.03
20023;BME280;10172;42.054;24.546;2023-02-13T09:34:02;100103.09;;;8.91;61.42
20023;BME280;10172;42.054;24.546;2023-02-13T09:36:27;100101.75;;;6.14;68.84
20023;BME280;10172;42.054;24.546;2023-02-13T09:38:54;100104.13;;;6.64;72.04
20023;BME280;10172;42.054;24.546;2023-02-13T09:41:29;100102.94;;;7.12;68.68
20023;BME280;10172;42.054;24.546;2023-02-13T09:46:35;100090.72;;;7.41;67.41
20023;BME280;10172;42.054;24.546;2023-02-13T09:49:06;100087.59;;;6.16;72.11
20023;BME280;10172;42.054;24.546;2023-02-13T09:51:33;100089.47;;;5.67;74.53
20023;BME280;10172;42.054;24.546;2023-02-13T09:54:02;100092.78;;;6.96;72.03
20023;BME280;10172;42.054;24.546;2023-02-13T09:57:14;100085.59;;;7.67;65.60
20023;BME280;10172;42.054;24.546;2023-02-13T09:59:57;100073.78;;;7.48;69.72
20023;BME280;10172;42.054;24.546;2023-02-13T10:02:40;100075.13;;;8.53;64.41
20023;BME280;10172;42.054;24.546;2023-02-13T10:16:46;100052.88;;;10.32;55.12
20023;BME280;10172;42.054;24.546;2023-02-13T10:19:43;100042.19;;;9.37;56.98
20023;BME280;10172;42.054;24.546;2023-02-13T10:22:16;100030.47;;;9.91;57.09
20023;BME280;10172;42.054;24.546;2023-02-13T10:27:33;100019.59;;;10.87;53.52
20023;BME280;10172;42.054;24.546;2023-02-13T10:33:11;100017.13;;;8.69;56.66
20023;BME280;10172;42.054;24.546;2023-02-13T10:38:28;99990.25;;;9.04;57.06
20023;BME280;10172;42.054;24.546;2023-02-13T10:55:11;99968.59;;;8.65;50.18
20023;BME280;10172;42.054;24.546;2023-02-13T11:00:28;99962.34;;;8.92;50.57
20023;BME280;10172;42.054;24.546;2023-02-13T11:02:58;99957.38;;;9.79;48.60
20023;BME280;10172;42.054;24.546;2023-02-13T11:05:32;99948.25;;;9.86;51.06
20023;BME280;10172;42.054;24.546;2023-02-13T11:08:01;99946.22;;;10.79;48.73
20023;BME280;10172;42.054;24.546;2023-02-13T11:10:27;99938.47;;;11.54;44.72
20023;BME280;10172;42.054;24.546;2023-02-13T11:12:53;99929.63;;;10.31;46.32
20023;BME280;10172;42.054;24.546;2023-02-13T11:17:46;99933.41;;;9.81;48.32
20023;BME280;10172;42.054;24.546;2023-02-13T11:22:54;99920.47;;;9.72;49.98
20023;BME280;10172;42.054;24.546;2023-02-13T11:25:24;99931.06;;;9.95;49.22
20023;BME280;10172;42.054;24.546;2023-02-13T11:28:07;99916.88;;;11.21;47.20
20023;BME280;10172;42.054;24.546;2023-02-13T11:30:35;99911.72;;;11.76;44.60
20023;BME280;10172;42.054;24.546;2023-02-13T11:33:23;99907.63;;;10.90;44.91
20023;BME280;10172;42.054;24.546;2023-02-13T11:36:03;99883.53;;;10.72;44.72
20023;BME280;10172;42.054;24.546;2023-02-13T11:38:29;99888.78;;;11.72;44.07
20023;BME280;10172;42.054;24.546;2023-02-13T11:41:14;99867.84;;;12.19;43.28
20023;BME280;10172;42.054;24.546;2023-02-13T11:43:46;99857.81;;;12.58;42.20
20023;BME280;10172;42.054;24.546;2023-02-13T11:46:18;99867.63;;;12.57;42.53
20023;BME280;10172;42.054;24.546;2023-02-13T11:48:59;99863.63;;;12.66;42.18
20023;BME280;10172;42.054;24.546;2023-02-13T11:51:44;99859.25;;;12.65;42.10
20023;BME280;10172;42.054;24.546;2023-02-13T11:54:32;99846.91;;;11.92;39.90
20023;BME280;10172;42.054;24.546;2023-02-13T11:57:18;99856.63;;;10.38;40.26
20023;BME280;10172;42.054;24.546;2023-02-13T11:59:46;99850.84;;;11.28;38.74
20023;BME280;10172;42.054;24.546;2023-02-13T12:02:14;99840.06;;;11.87;39.15
20023;BME280;10172;42.054;24.546;2023-02-13T12:04:39;99843.94;;;11.98;39.92
20023;BME280;10172;42.054;24.546;2023-02-13T12:09:44;99832.41;;;11.98;38.40
20023;BME280;10172;42.054;24.546;2023-02-13T12:12:38;99828.16;;;12.64;38.57
20023;BME280;10172;42.054;24.546;2023-02-13T12:15:16;99825.94;;;12.72;36.02
20023;BME280;10172;42.054;24.546;2023-02-13T12:17:44;99821.88;;;12.98;36.47
20023;BME280;10172;42.054;24.546;2023-02-13T12:20:15;99817.28;;;13.34;36.06
20023;BME280;10172;42.054;24.546;2023-02-13T12:28:36;99804.25;;;10.99;37.02
20023;BME280;10172;42.054;24.546;2023-02-13T12:31:38;99803.63;;;11.69;37.78
20023;BME280;10172;42.054;24.546;2023-02-13T12:34:53;99803.06;;;11.62;34.97
20023;BME280;10172;42.054;24.546;2023-02-13T12:46:01;99806.78;;;12.64;34.93
20023;BME280;10172;42.054;24.546;2023-02-13T12:48:03;99800.66;;;13.45;33.33
20023;BME280;10172;42.054;24.546;2023-02-13T12:56:21;99788.41;;;12.07;32.97
20023;BME280;10172;42.054;24.546;2023-02-13T12:59:02;99784.31;;;11.45;34.91
20023;BME280;10172;42.054;24.546;2023-02-13T13:12:38;99774.25;;;13.70;34.60
20023;BME280;10172;42.054;24.546;2023-02-13T13:21:10;99762.00;;;13.35;34.37
20023;BME280;10172;42.054;24.546;2023-02-13T13:24:09;99761.16;;;13.34;34.17
20023;BME280;10172;42.054;24.546;2023-02-13T13:26:40;99755.78;;;13.18;34.34
20023;BME280;10172;42.054;24.546;2023-02-13T13:29:16;99755.63;;;13.22;33.37
20023;BME280;10172;42.054;24.546;2023-02-13T13:31:55;99761.47;;;13.28;33.55
20023;BME280;10172;42.054;24.546;2023-02-13T13:34:24;99758.75;;;13.45;33.44
20023;BME280;10172;42.054;24.546;2023-02-13T13:37:06;99753.41;;;13.45;33.62
20023;BME280;10172;42.054;24.546;2023-02-13T13:39:42;99759.88;;;13.57;33.56
20023;BME280;10172;42.054;24.546;2023-02-13T13:50:20;99754.38;;;12.46;36.36
20023;BME280;10172;42.054;24.546;2023-02-13T13:55:58;99746.31;;;13.13;35.33
20023;BME280;10172;42.054;24.546;2023-02-13T13:58:42;99751.66;;;13.29;35.43
20023;BME280;10172;42.054;24.546;2023-02-13T14:03:53;99745.81;;;13.53;32.80
20023;BME280;10172;42.054;24.546;2023-02-13T14:06:23;99735.47;;;13.32;34.16
20023;BME280;10172;42.054;24.546;2023-02-13T14:08:57;99742.53;;;13.48;33.77
20023;BME280;10172;42.054;24.546;2023-02-13T14:14:00;99741.91;;;13.12;34.02
20023;BME280;10172;42.054;24.546;2023-02-13T14:16:59;99731.41;;;13.25;34.25
20023;BME280;10172;42.054;24.546;2023-02-13T14:24:53;99737.25;;;13.47;33.43
20023;BME280;10172;42.054;24.546;2023-02-13T14:27:24;99738.97;;;11.82;34.04
20023;BME280;10172;42.054;24.546;2023-02-13T14:29:51;99737.09;;;12.53;33.81
20023;BME280;10172;42.054;24.546;2023-02-13T14:34:52;99727.84;;;12.26;34.49
20023;BME280;10172;42.054;24.546;2023-02-13T14:37:46;99730.00;;;11.48;35.18
20023;BME280;10172;42.054;24.546;2023-02-13T14:43:34;99729.63;;;12.59;35.98
20023;BME280;10172;42.054;24.546;2023-02-13T14:45:55;99720.06;;;13.04;34.32
20023;BME280;10172;42.054;24.546;2023-02-13T14:48:32;99721.41;;;11.95;35.77
20023;BME280;10172;42.054;24.546;2023-02-13T14:50:59;99722.41;;;11.40;37.24
20023;BME280;10172;42.054;24.546;2023-02-13T14:53:30;99723.13;;;11.25;37.58
20023;BME280;10172;42.054;24.546;2023-02-13T14:56:04;99728.66;;;10.44;39.83
20023;BME280;10172;42.054;24.546;2023-02-13T14:58:33;99725.56;;;10.35;41.40
20023;BME280;10172;42.054;24.546;2023-02-13T15:03:56;99715.28;;;9.43;43.95
20023;BME280;10172;42.054;24.546;2023-02-13T15:06:27;99716.56;;;8.88;44.80
20023;BME280;10172;42.054;24.546;2023-02-13T15:08:55;99718.16;;;8.21;47.58
20023;BME280;10172;42.054;24.546;2023-02-13T15:11:42;99719.28;;;8.40;47.23
20023;BME280;10172;42.054;24.546;2023-02-13T15:14:30;99706.50;;;7.50;50.28
20023;BME280;10172;42.054;24.546;2023-02-13T15:22:39;99711.19;;;7.68;49.32
20023;BME280;10172;42.054;24.546;2023-02-13T15:25:21;99721.25;;;6.74;51.69
20023;BME280;10172;42.054;24.546;2023-02-13T15:27:51;99726.69;;;6.69;52.60
20023;BME280;10172;42.054;24.546;2023-02-13T15:30:24;99712.69;;;7.22;51.33
20023;BME280;10172;42.054;24.546;2023-02-13T15:32:58;99711.56;;;6.74;52.25
20023;BME280;10172;42.054;24.546;2023-02-13T15:35:27;99724.78;;;6.13;52.83
20023;BME280;10172;42.054;24.546;2023-02-13T15:37:53;99713.13;;;5.87;53.99
20023;BME280;10172;42.054;24.546;2023-02-13T15:40:21;99720.31;;;6.15;52.45
20023;BME280;10172;42.054;24.546;2023-02-13T15:42:48;99705.81;;;5.63;54.33
20023;BME280;10172;42.054;24.546;2023-02-13T15:45:15;99718.31;;;5.57;54.65
20023;BME280;10172;42.054;24.546;2023-02-13T15:47:43;99707.84;;;5.52;55.73
20023;BME280;10172;42.054;24.546;2023-02-13T15:50:21;99709.88;;;5.76;54.56